sensor_id;sensor_type;location;lat;lon;timestamp;temperature;humidity
14154;DHT22;7157;53.144;7.570;2023-02-15T00:06:06;2.87;86.19
14154;DHT22;7157;53.144;7.570;2023-02-15T00:16:12;2.85;86.29
14154;DHT22;7157;53.144;7.570;2023-02-15T00:26:15;2.79;86.14
14154;DHT22;7157;53.144;7.570;2023-02-15T00:36:19;2.72;86.03
14154;DHT22;7157;53.144;7.570;2023-02-15T00:46:21;2.57;86.25
14154;DHT22;7157;53.144;7.570;2023-02-15T00:56:25;2.42;86.80
14154;DHT22;7157;53.144;7.570;2023-02-15T01:06:29;2.32;87.20
14154;DHT22;7157;53.144;7.570;2023-02-15T01:16:33;2.26;86.91
14154;DHT22;7157;53.144;7.570;2023-02-15T01:26:36;2.23;87.32
14154;DHT22;7157;53.144;7.570;2023-02-15T01:36:40;2.11;87.34
14154;DHT22;7157;53.144;7.570;2023-02-15T01:46:47;1.88;87.56
14154;DHT22;7157;53.144;7.570;2023-02-15T01:56:54;1.77;87.92
14154;DHT22;7157;53.144;7.570;2023-02-15T02:07:02;1.75;87.89
14154;DHT22;7157;53.144;7.570;2023-02-15T02:17:12;1.67;88.82
14154;DHT22;7157;53.144;7.570;2023-02-15T02:27:24;1.60;89.08
14154;DHT22;7157;53.144;7.570;2023-02-15T02:37:37;1.41;89.58
14154;DHT22;7157;53.144;7.570;2023-02-15T02:47:44;1.46;89.69
14154;DHT22;7157;53.144;7.570;2023-02-15T02:57:53;1.53;89.99
14154;DHT22;7157;53.144;7.570;2023-02-15T03:07:58;1.38;90.44
14154;DHT22;7157;53.144;7.570;2023-02-15T03:18:03;1.39;90.47
14154;DHT22;7157;53.144;7.570;2023-02-15T03:28:09;1.31;90.78
14154;DHT22;7157;53.144;7.570;2023-02-15T03:38:18;1.38;90.59
14154;DHT22;7157;53.144;7.570;2023-02-15T03:48:25;1.34;90.53
14154;DHT22;7157;53.144;7.570;2023-02-15T03:58:30;1.19;90.82
14154;DHT22;7157;53.144;7.570;2023-02-15T04:08:50;1.19;90.37
14154;DHT22;7157;53.144;7.570;2023-02-15T04:19:11;1.25;90.46
14154;DHT22;7157;53.144;7.570;2023-02-15T04:29:32;1.07;90.60
14154;DHT22;7157;53.144;7.570;2023-02-15T04:39:36;1.03;90.94
14154;DHT22;7157;53.144;7.570;2023-02-15T04:49:39;1.03;90.59
14154;DHT22;7157;53.144;7.570;2023-02-15T04:59:43;0.88;90.81
14154;DHT22;7157;53.144;7.570;2023-02-15T05:09:46;0.84;90.71
14154;DHT22;7157;53.144;7.570;2023-02-15T05:19:50;0.82;90.45
14154;DHT22;7157;53.144;7.570;2023-02-15T05:29:53;0.80;90.57
14154;DHT22;7157;53.144;7.570;2023-02-15T05:39:58;0.87;90.92
14154;DHT22;7157;53.144;7.570;2023-02-15T05:50:00;0.98;91.44
14154;DHT22;7157;53.144;7.570;2023-02-15T06:00:05;1.08;92.72
14154;DHT22;7157;53.144;7.570;2023-02-15T06:10:10;1.05;92.64
14154;DHT22;7157;53.144;7.570;2023-02-15T06:20:14;0.99;92.31
14154;DHT22;7157;53.144;7.570;2023-02-15T06:30:17;1.03;92.19
14154;DHT22;7157;53.144;7.570;2023-02-15T06:40:21;1.08;91.99
14154;DHT22;7157;53.144;7.570;2023-02-15T06:50:24;1.03;91.69
14154;DHT22;7157;53.144;7.570;2023-02-15T07:00:28;1.16;91.68
14154;DHT22;7157;53.144;7.570;2023-02-15T07:10:30;1.22;91.71
14154;DHT22;7157;53.144;7.570;2023-02-15T07:20:34;1.33;91.15
14154;DHT22;7157;53.144;7.570;2023-02-15T07:30:38;1.50;91.36
14154;DHT22;7157;53.144;7.570;2023-02-15T07:40:43;1.71;91.49
14154;DHT22;7157;53.144;7.570;2023-02-15T07:50:46;2.11;91.37
14154;DHT22;7157;53.144;7.570;2023-02-15T08:00:50;2.44;91.23
14154;DHT22;7157;53.144;7.570;2023-02-15T08:11:00;2.76;91.25
14154;DHT22;7157;53.144;7.570;2023-02-15T08:21:22;3.06;92.89
14154;DHT22;7157;53.144;7.570;2023-02-15T08:31:25;3.52;94.39
14154;DHT22;7157;53.144;7.570;2023-02-15T08:41:31;3.88;95.44
14154;DHT22;7157;53.144;7.570;2023-02-15T08:51:37;4.23;95.49
14154;DHT22;7157;53.144;7.570;2023-02-15T09:01:42;4.50;95.49
14154;DHT22;7157;53.144;7.570;2023-02-15T09:11:46;4.86;94.87
14154;DHT22;7157;53.144;7.570;2023-02-15T09:21:51;5.26;94.81
14154;DHT22;7157;53.144;7.570;2023-02-15T09:31:54;5.75;94.07
14154;DHT22;7157;53.144;7.570;2023-02-15T09:52:52;6.88;91.33
14154;DHT22;7157;53.144;7.570;2023-02-15T10:03:13;7.19;89.12
14154;DHT22;7157;53.144;7.570;2023-02-15T10:13:26;7.69;88.31
14154;DHT22;7157;53.144;7.570;2023-02-15T10:23:43;7.93;86.68
14154;DHT22;7157;53.144;7.570;2023-02-15T10:33:58;8.31;85.76
14154;DHT22;7157;53.144;7.570;2023-02-15T10:44:18;8.98;84.34
14154;DHT22;7157;53.144;7.570;2023-02-15T10:54:29;9.36;82.26
14154;DHT22;7157;53.144;7.570;2023-02-15T11:04:40;9.84;79.73
14154;DHT22;7157;53.144;7.570;2023-02-15T11:14:50;10.28;77.63
14154;DHT22;7157;53.144;7.570;2023-02-15T11:24:57;11.11;74.70
14154;DHT22;7157;53.144;7.570;2023-02-15T11:35:05;14.25;65.79
14154;DHT22;7157;53.144;7.570;2023-02-15T11:45:22;18.63;47.47
14154;DHT22;7157;53.144;7.570;2023-02-15T11:55:29;23.12;35.75
14154;DHT22;7157;53.144;7.570;2023-02-15T12:05:34;22.16;35.89
14154;DHT22;7157;53.144;7.570;2023-02-15T12:15:41;24.36;32.91
14154;DHT22;7157;53.144;7.570;2023-02-15T12:25:50;24.64;31.86
14154;DHT22;7157;53.144;7.570;2023-02-15T12:36:00;21.40;37.16
14154;DHT22;7157;53.144;7.570;2023-02-15T12:46:19;21.17;36.76
14154;DHT22;7157;53.144;7.570;2023-02-15T12:56:27;19.46;41.93
14154;DHT22;7157;53.144;7.570;2023-02-15T13:06:32;20.68;38.36
14154;DHT22;7157;53.144;7.570;2023-02-15T13:16:38;22.21;35.53
14154;DHT22;7157;53.144;7.570;2023-02-15T13:26:43;21.11;36.94
14154;DHT22;7157;53.144;7.570;2023-02-15T13:36:51;18.63;41.62
14154;DHT22;7157;53.144;7.570;2023-02-15T13:47:08;18.20;43.00
14154;DHT22;7157;53.144;7.570;2023-02-15T13:57:28;16.86;46.13
14154;DHT22;7157;53.144;7.570;2023-02-15T14:07:51;15.83;49.40
14154;DHT22;7157;53.144;7.570;2023-02-15T14:18:11;14.67;53.23
14154;DHT22;7157;53.144;7.570;2023-02-15T14:28:18;14.35;55.10
14154;DHT22;7157;53.144;7.570;2023-02-15T14:38:37;14.23;56.15
14154;DHT22;7157;53.144;7.570;2023-02-15T14:48:45;13.98;57.03
14154;DHT22;7157;53.144;7.570;2023-02-15T14:59:08;13.64;58.60
14154;DHT22;7157;53.144;7.570;2023-02-15T15:09:21;13.06;62.92
14154;DHT22;7157;53.144;7.570;2023-02-15T15:30:02;12.37;66.48
14154;DHT22;7157;53.144;7.570;2023-02-15T15:50:51;11.96;68.49
14154;DHT22;7157;53.144;7.570;2023-02-15T16:00:59;11.71;69.51
14154;DHT22;7157;53.144;7.570;2023-02-15T16:11:13;11.31;71.12
14154;DHT22;7157;53.144;7.570;2023-02-15T16:21:18;10.97;72.62
14154;DHT22;7157;53.144;7.570;2023-02-15T16:31:23;10.78;73.51
14154;DHT22;7157;53.144;7.570;2023-02-15T16:41:27;10.56;74.00
14154;DHT22;7157;53.144;7.570;2023-02-15T16:51:34;10.34;75.20
14154;DHT22;7157;53.144;7.570;2023-02-15T17:01:37;10.19;77.20
14154;DHT22;7157;53.144;7.570;2023-02-15T17:11:43;9.96;78.75
14154;DHT22;7157;53.144;7.570;2023-02-15T17:21:49;9.83;79.01
14154;DHT22;7157;53.144;7.570;2023-02-15T17:31:55;9.72;79.09
14154;DHT22;7157;53.144;7.570;2023-02-15T17:41:59;9.56;79.58
14154;DHT22;7157;53.144;7.570;2023-02-15T17:52:03;9.46;79.78
14154;DHT22;7157;53.144;7.570;2023-02-15T18:02:08;9.22;80.14
14154;DHT22;7157;53.144;7.570;2023-02-15T18:12:33;9.03;80.14
14154;DHT22;7157;53.144;7.570;2023-02-15T18:22:37;8.75;80.71
14154;DHT22;7157;53.144;7.570;2023-02-15T18:32:41;8.70;80.69
14154;DHT22;7157;53.144;7.570;2023-02-15T18:42:46;8.64;81.23
14154;DHT22;7157;53.144;7.570;2023-02-15T18:52:51;8.55;81.31
14154;DHT22;7157;53.144;7.570;2023-02-15T19:02:55;8.55;81.40
14154;DHT22;7157;53.144;7.570;2023-02-15T19:12:59;8.50;81.19
14154;DHT22;7157;53.144;7.570;2023-02-15T19:23:02;8.35;81.38
14154;DHT22;7157;53.144;7.570;2023-02-15T19:33:14;8.29;82.05
14154;DHT22;7157;53.144;7.570;2023-02-15T19:43:19;8.31;82.20
14154;DHT22;7157;53.144;7.570;2023-02-15T19:53:28;8.43;81.50
14154;DHT22;7157;53.144;7.570;2023-02-15T20:03:31;8.41;81.75
14154;DHT22;7157;53.144;7.570;2023-02-15T20:13:35;8.41;81.38
14154;DHT22;7157;53.144;7.570;2023-02-15T20:23:37;8.37;81.39
14154;DHT22;7157;53.144;7.570;2023-02-15T20:33:42;8.32;81.71
14154;DHT22;7157;53.144;7.570;2023-02-15T20:43:45;8.32;81.57
14154;DHT22;7157;53.144;7.570;2023-02-15T20:53:49;8.21;82.08
14154;DHT22;7157;53.144;7.570;2023-02-15T21:03:52;8.27;81.91
14154;DHT22;7157;53.144;7.570;2023-02-15T21:13:56;8.31;81.25
14154;DHT22;7157;53.144;7.570;2023-02-15T21:23:59;8.19;81.29
14154;DHT22;7157;53.144;7.570;2023-02-15T21:34:03;8.15;81.23
14154;DHT22;7157;53.144;7.570;2023-02-15T21:44:14;8.01;81.38
14154;DHT22;7157;53.144;7.570;2023-02-15T21:54:36;7.85;82.01
14154;DHT22;7157;53.144;7.570;2023-02-15T22:04:38;7.73;82.14
14154;DHT22;7157;53.144;7.570;2023-02-15T22:14:45;7.68;82.06
14154;DHT22;7157;53.144;7.570;2023-02-15T22:24:51;7.50;82.60
14154;DHT22;7157;53.144;7.570;2023-02-15T22:34:55;7.28;83.41
14154;DHT22;7157;53.144;7.570;2023-02-15T22:44:58;7.18;83.89
14154;DHT22;7157;53.144;7.570;2023-02-15T22:55:02;7.08;83.90
14154;DHT22;7157;53.144;7.570;2023-02-15T23:05:05;6.93;83.78
14154;DHT22;7157;53.144;7.570;2023-02-15T23:15:10;6.76;83.90
14154;DHT22;7157;53.144;7.570;2023-02-15T23:25:13;6.57;84.28
14154;DHT22;7157;53.144;7.570;2023-02-15T23:35:19;6.42;84.62
14154;DHT22;7157;53.144;7.570;2023-02-15T23:45:22;6.33;85.13
14154;DHT22;7157;53.144;7.570;2023-02-15T23:55:32;6.33;85.41
